createdAt,value
2018-04-29T00:01:29.564Z,57.34
2018-04-29T00:05:32.043Z,57.80
2018-04-29T00:09:34.535Z,57.81
2018-04-29T00:13:37.016Z,57.22
2018-04-29T00:17:39.504Z,56.99
2018-04-29T00:21:41.962Z,57.03
2018-04-29T00:25:44.440Z,56.97
2018-04-29T00:29:46.895Z,57.34
2018-04-29T00:33:49.396Z,57.58
2018-04-29T00:37:51.858Z,57.61
2018-04-29T00:41:54.375Z,57.61
2018-04-29T00:45:56.836Z,57.79
2018-04-29T00:49:59.328Z,58.08
2018-04-29T00:54:01.828Z,58.37
2018-04-29T00:58:04.338Z,58.41
2018-04-29T01:02:06.819Z,58.73
2018-04-29T01:06:09.310Z,58.79
2018-04-29T01:10:11.798Z,58.81
2018-04-29T01:14:14.254Z,58.86
2018-04-29T01:18:16.738Z,58.87
2018-04-29T01:22:19.214Z,58.96
2018-04-29T01:26:21.712Z,58.94
2018-04-29T01:30:24.204Z,58.99
2018-04-29T01:34:26.692Z,59.45
2018-04-29T01:38:29.176Z,59.11
2018-04-29T01:42:31.672Z,58.65
2018-04-29T01:46:34.155Z,58.39
2018-04-29T01:50:36.607Z,58.00
2018-04-29T01:54:39.090Z,57.84
2018-04-29T01:58:41.576Z,57.79
2018-04-29T02:02:44.066Z,58.28
2018-04-29T02:06:46.550Z,58.77
2018-04-29T02:10:49.031Z,59.20
2018-04-29T02:14:51.520Z,59.58
2018-04-29T02:18:53.999Z,59.81
2018-04-29T02:22:56.467Z,60.01
2018-04-29T02:26:58.927Z,60.01
2018-04-29T02:31:01.454Z,59.94
2018-04-29T02:35:03.950Z,59.98
2018-04-29T02:39:06.455Z,60.45
2018-04-29T02:43:08.910Z,60.81
2018-04-29T02:47:11.399Z,60.99
2018-04-29T02:51:13.886Z,61.03
2018-04-29T02:55:16.347Z,60.95
2018-04-29T02:59:18.848Z,61.01
2018-04-29T03:03:21.313Z,60.95
2018-04-29T03:07:23.795Z,61.00
2018-04-29T03:11:26.259Z,61.07
2018-04-29T03:15:28.745Z,61.10
2018-04-29T03:19:31.217Z,61.49
2018-04-29T03:23:33.713Z,61.69
2018-04-29T03:27:36.216Z,61.75
2018-04-29T03:31:38.695Z,61.73
2018-04-29T03:35:41.191Z,61.79
2018-04-29T03:39:43.657Z,61.85
2018-04-29T03:43:46.149Z,61.89
2018-04-29T03:47:48.605Z,61.94
2018-04-29T03:51:51.090Z,62.08
2018-04-29T03:55:53.640Z,62.30
2018-04-29T04:00:07.956Z,62.71
2018-04-29T04:04:10.441Z,62.86
2018-04-29T04:08:12.925Z,63.12
2018-04-29T04:12:15.420Z,62.98
2018-04-29T04:16:17.901Z,62.98
2018-04-29T04:20:20.397Z,63.19
2018-04-29T04:24:22.888Z,63.43
2018-04-29T04:28:25.375Z,63.67
2018-04-29T04:32:27.874Z,63.89
2018-04-29T04:36:30.359Z,64.28
2018-04-29T04:40:32.848Z,64.57
2018-04-29T04:44:35.337Z,64.54
2018-04-29T04:48:37.797Z,64.51
2018-04-29T04:52:40.278Z,64.53
2018-04-29T04:56:42.776Z,64.50
2018-04-29T05:00:45.271Z,64.57
2018-04-29T05:04:47.757Z,64.63
2018-04-29T05:08:50.217Z,64.83
2018-04-29T05:12:52.707Z,64.87
2018-04-29T05:16:55.208Z,64.74
2018-04-29T05:20:57.724Z,64.42
2018-04-29T05:25:00.206Z,64.25
2018-04-29T05:29:02.693Z,63.69
2018-04-29T05:33:05.178Z,63.61
2018-04-29T05:37:07.669Z,63.37
2018-04-29T05:41:10.166Z,63.19
2018-04-29T05:45:12.635Z,62.23
2018-04-29T05:49:15.116Z,61.80
2018-04-29T05:53:17.595Z,61.58
2018-04-29T05:57:20.084Z,61.56
2018-04-29T06:01:22.576Z,61.22
2018-04-29T06:05:25.032Z,60.99
2018-04-29T06:09:27.517Z,60.76
2018-04-29T06:13:29.979Z,60.42
2018-04-29T06:17:32.501Z,59.64
2018-04-29T06:21:35.092Z,58.22
2018-04-29T06:25:38.434Z,57.51
2018-04-29T06:29:40.936Z,56.51
2018-04-29T06:33:43.403Z,56.42
2018-04-29T06:37:45.891Z,55.79
2018-04-29T06:41:48.495Z,55.32
2018-04-29T06:45:50.979Z,55.21
2018-04-29T06:49:53.442Z,53.62
2018-04-29T06:53:55.922Z,52.33
2018-04-29T06:57:58.428Z,52.75
2018-04-29T07:02:00.891Z,52.31
2018-04-29T07:06:03.378Z,52.53
2018-04-29T07:10:05.855Z,51.02
2018-04-29T07:14:08.335Z,50.93
2018-04-29T07:18:10.807Z,50.63
2018-04-29T07:22:13.289Z,49.73
2018-04-29T07:26:15.789Z,49.09
2018-04-29T07:30:18.293Z,48.56
2018-04-29T07:34:20.758Z,49.09
2018-04-29T07:38:23.253Z,48.68
2018-04-29T07:42:25.739Z,47.62
2018-04-29T07:46:28.573Z,47.42
2018-04-29T07:50:30.970Z,47.42
2018-04-29T07:54:33.450Z,46.61
2018-04-29T07:58:35.928Z,46.25
2018-04-29T08:02:38.378Z,45.95
2018-04-29T08:06:40.914Z,46.04
2018-04-29T08:10:43.353Z,46.22
2018-04-29T08:14:45.859Z,46.68
2018-04-29T08:18:48.319Z,46.02
2018-04-29T08:22:50.819Z,44.56
2018-04-29T08:26:53.286Z,44.02
2018-04-29T08:30:55.759Z,43.62
2018-04-29T08:34:58.270Z,43.66
2018-04-29T08:39:00.728Z,42.67
2018-04-29T08:43:03.221Z,42.56
2018-04-29T08:47:05.684Z,42.85
2018-04-29T08:51:08.172Z,42.84
2018-04-29T08:55:10.649Z,41.75
2018-04-29T08:59:13.142Z,42.81
2018-04-29T09:03:15.620Z,41.21
2018-04-29T09:07:18.096Z,40.69
2018-04-29T09:11:20.575Z,40.30
2018-04-29T09:15:23.086Z,41.08
2018-04-29T09:19:25.546Z,41.12
2018-04-29T09:23:28.027Z,41.75
2018-04-29T09:27:30.493Z,40.12
2018-04-29T09:31:32.980Z,40.60
2018-04-29T09:35:35.438Z,39.81
2018-04-29T09:39:37.919Z,39.54
2018-04-29T09:43:40.416Z,39.62
2018-04-29T09:47:42.864Z,39.81
2018-04-29T09:51:45.356Z,39.33
2018-04-29T09:55:47.830Z,39.35
2018-04-29T09:59:50.322Z,38.52
2018-04-29T10:03:52.804Z,38.81
2018-04-29T10:07:55.300Z,38.01
2018-04-29T10:11:57.776Z,38.23
2018-04-29T10:16:00.263Z,38.02
2018-04-29T10:20:02.761Z,37.74
2018-04-29T10:24:05.217Z,37.31
2018-04-29T10:28:07.704Z,37.05
2018-04-29T10:32:10.200Z,37.21
2018-04-29T10:36:12.698Z,36.08
2018-04-29T10:40:15.206Z,35.88
2018-04-29T10:44:17.651Z,35.38
2018-04-29T10:48:20.144Z,35.48
2018-04-29T10:52:22.641Z,35.32
2018-04-29T10:56:25.106Z,35.50
2018-04-29T11:00:27.591Z,34.92
2018-04-29T11:04:30.052Z,35.03
2018-04-29T11:08:32.543Z,35.33
2018-04-29T11:12:35.037Z,34.56
2018-04-29T11:16:37.559Z,34.90
2018-04-29T11:20:39.986Z,33.74
2018-04-29T11:24:42.471Z,33.58
2018-04-29T11:28:44.946Z,33.40
2018-04-29T11:32:47.429Z,32.89
2018-04-29T11:36:49.997Z,32.85
2018-04-29T11:40:52.452Z,33.12
2018-04-29T11:44:54.927Z,32.95
2018-04-29T11:48:57.388Z,33.00
2018-04-29T11:52:59.868Z,32.75
2018-04-29T11:57:02.363Z,32.18
2018-04-29T12:01:04.821Z,32.46
2018-04-29T12:05:07.308Z,32.44
2018-04-29T12:09:09.765Z,33.30
2018-04-29T12:13:12.254Z,32.38
2018-04-29T12:17:14.736Z,32.91
2018-04-29T12:21:17.195Z,33.05
2018-04-29T12:25:19.688Z,31.51
2018-04-29T12:29:22.193Z,31.21
2018-04-29T12:33:24.657Z,30.95
2018-04-29T12:37:27.141Z,30.87
2018-04-29T12:41:29.643Z,31.29
2018-04-29T12:45:32.182Z,32.54
2018-04-29T12:49:34.656Z,31.67
2018-04-29T12:53:37.143Z,31.73
2018-04-29T12:57:39.622Z,31.12
2018-04-29T13:01:42.108Z,30.32
2018-04-29T13:05:44.640Z,30.77
2018-04-29T13:09:47.080Z,30.81
2018-04-29T13:13:49.623Z,31.04
2018-04-29T13:17:52.133Z,31.21
2018-04-29T13:21:54.622Z,31.05
2018-04-29T13:25:57.088Z,31.09
2018-04-29T13:29:59.585Z,30.98
2018-04-29T13:34:02.080Z,31.00
2018-04-29T13:38:04.545Z,31.05
2018-04-29T13:42:07.106Z,30.52
2018-04-29T13:46:09.508Z,30.83
2018-04-29T13:50:12.209Z,30.45
2018-04-29T13:54:14.703Z,30.37
2018-04-29T13:58:17.160Z,30.35
2018-04-29T14:02:19.646Z,30.45
2018-04-29T14:06:22.127Z,30.72
2018-04-29T14:10:24.663Z,30.49
2018-04-29T14:14:27.074Z,28.94
2018-04-29T14:18:29.557Z,28.48
2018-04-29T14:22:32.040Z,28.87
2018-04-29T14:26:34.519Z,29.31
2018-04-29T14:30:37.012Z,28.96
2018-04-29T14:34:39.519Z,29.21
2018-04-29T14:38:41.982Z,29.69
2018-04-29T14:42:44.463Z,29.36
2018-04-29T14:46:46.950Z,28.98
2018-04-29T14:50:49.450Z,29.13
2018-04-29T14:54:51.911Z,29.12
2018-04-29T14:58:54.390Z,28.97
2018-04-29T15:02:56.881Z,29.40
2018-04-29T15:06:59.371Z,28.49
2018-04-29T15:11:01.830Z,28.68
2018-04-29T15:15:04.321Z,28.83
2018-04-29T15:19:06.787Z,28.39
2018-04-29T15:23:09.269Z,27.35
2018-04-29T15:27:11.752Z,27.35
2018-04-29T15:31:14.242Z,27.77
2018-04-29T15:35:16.723Z,27.73
2018-04-29T15:39:19.190Z,27.61
2018-04-29T15:43:21.730Z,28.46
2018-04-29T15:47:24.205Z,28.80
2018-04-29T15:51:26.667Z,29.21
2018-04-29T15:55:29.143Z,29.23
2018-04-29T15:59:31.626Z,29.12
2018-04-29T16:03:34.136Z,29.30
2018-04-29T16:07:36.582Z,29.14
2018-04-29T16:11:39.090Z,29.07
2018-04-29T16:15:41.572Z,29.22
2018-04-29T16:19:44.040Z,29.45
2018-04-29T16:23:46.584Z,29.72
2018-04-29T16:27:49.049Z,29.68
2018-04-29T16:31:51.547Z,29.92
2018-04-29T16:35:54.048Z,30.13
2018-04-29T16:39:56.532Z,29.98
2018-04-29T16:43:59.020Z,30.36
2018-04-29T16:48:01.512Z,30.60
2018-04-29T16:52:04.001Z,30.85
2018-04-29T16:56:06.481Z,31.20
2018-04-29T17:00:08.955Z,31.51
2018-04-29T17:04:11.445Z,31.78
2018-04-29T17:08:13.909Z,32.01
2018-04-29T17:12:16.391Z,32.14
2018-04-29T17:16:18.878Z,32.30
2018-04-29T17:20:21.380Z,32.45
2018-04-29T17:24:23.842Z,32.75
2018-04-29T17:28:26.323Z,32.79
2018-04-29T17:32:28.790Z,33.13
2018-04-29T17:36:31.291Z,33.00
2018-04-29T17:40:33.745Z,33.29
2018-04-29T17:44:36.232Z,33.40
2018-04-29T17:48:38.706Z,33.45
2018-04-29T17:52:41.203Z,33.53
2018-04-29T17:56:43.689Z,33.71
2018-04-29T18:00:46.179Z,33.83
2018-04-29T18:04:48.652Z,33.75
2018-04-29T18:08:51.130Z,33.91
2018-04-29T18:12:53.624Z,34.05
2018-04-29T18:16:56.076Z,34.11
2018-04-29T18:20:58.552Z,34.23
2018-04-29T18:25:01.037Z,34.39
2018-04-29T18:29:03.493Z,34.61
2018-04-29T18:33:05.979Z,35.03
2018-04-29T18:37:08.442Z,35.49
2018-04-29T18:41:10.926Z,35.94
2018-04-29T18:45:13.416Z,36.45
2018-04-29T18:49:15.973Z,36.98
2018-04-29T18:53:18.461Z,37.54
2018-04-29T18:57:20.923Z,37.94
2018-04-29T19:01:23.411Z,38.29
2018-04-29T19:05:37.532Z,38.78
2018-04-29T19:09:40.010Z,39.41
2018-04-29T19:13:42.497Z,39.73
2018-04-29T19:17:44.981Z,40.17
2018-04-29T19:21:47.467Z,40.54
2018-04-29T19:25:49.947Z,40.75
2018-04-29T19:29:52.434Z,41.06
2018-04-29T19:33:54.921Z,41.20
2018-04-29T19:37:57.407Z,41.43
2018-04-29T19:41:59.869Z,41.36
2018-04-29T19:46:02.360Z,41.45
2018-04-29T19:50:04.821Z,41.42
2018-04-29T19:54:07.302Z,41.43
2018-04-29T19:58:09.775Z,41.40
2018-04-29T20:02:12.262Z,41.46
2018-04-29T20:06:14.719Z,41.58
2018-04-29T20:10:17.205Z,41.74
2018-04-29T20:14:19.665Z,41.83
2018-04-29T20:18:22.150Z,41.99
2018-04-29T20:22:24.652Z,42.22
2018-04-29T20:26:27.135Z,42.48
2018-04-29T20:30:29.628Z,42.59
2018-04-29T20:34:32.094Z,42.66
2018-04-29T20:38:34.569Z,42.62
2018-04-29T20:42:37.047Z,42.66
2018-04-29T20:46:39.511Z,42.58
2018-04-29T20:50:41.988Z,42.48
2018-04-29T20:54:44.469Z,42.30
2018-04-29T20:58:46.922Z,42.21
2018-04-29T21:02:49.404Z,42.04
2018-04-29T21:06:51.859Z,41.93
2018-04-29T21:10:54.348Z,41.87
2018-04-29T21:14:56.827Z,41.77
2018-04-29T21:18:59.333Z,41.68
2018-04-29T21:23:01.790Z,41.59
2018-04-29T21:27:04.271Z,41.60
2018-04-29T21:31:06.748Z,41.54
2018-04-29T21:35:09.215Z,41.63
2018-04-29T21:39:11.694Z,41.65
2018-04-29T21:43:14.163Z,41.59
2018-04-29T21:47:16.641Z,41.62
2018-04-29T21:51:19.087Z,41.65
2018-04-29T21:55:21.576Z,41.69
2018-04-29T21:59:24.036Z,42.03
2018-04-29T22:03:26.514Z,42.28
2018-04-29T22:07:29.003Z,42.46
2018-04-29T22:11:31.494Z,42.66
2018-04-29T22:15:33.973Z,42.78
2018-04-29T22:19:36.457Z,42.79
2018-04-29T22:23:38.949Z,42.67
2018-04-29T22:27:41.408Z,42.72
2018-04-29T22:31:43.879Z,42.88
2018-04-29T22:35:46.367Z,42.98
2018-04-29T22:39:48.818Z,43.26
2018-04-29T22:43:51.312Z,43.36
2018-04-29T22:47:53.795Z,43.33
2018-04-29T22:51:56.282Z,43.37
2018-04-29T22:55:58.750Z,43.66
2018-04-29T23:00:01.224Z,43.68
2018-04-29T23:04:03.762Z,43.77
2018-04-29T23:08:06.209Z,43.31
2018-04-29T23:12:08.658Z,43.30
2018-04-29T23:16:11.139Z,43.16
2018-04-29T23:20:13.623Z,43.24
2018-04-29T23:24:16.105Z,43.39
2018-04-29T23:28:18.592Z,43.29
2018-04-29T23:32:21.071Z,43.64
2018-04-29T23:36:23.555Z,43.90
2018-04-29T23:40:26.011Z,44.47
2018-04-29T23:44:28.500Z,45.16
2018-04-29T23:48:30.982Z,45.78
2018-04-29T23:52:33.479Z,45.75
2018-04-29T23:56:35.946Z,46.46
